Hauptseite
METAR-TAF:

METAR-TAF

Flughäfen :

Mendoza, Argentinien

Flughafen Mendoza

Breite: 32-50S, Länge: 068-47W, Höhe: 705 m

Beobachtung

Neuester Wetterbericht von vor 1 Stunde und 12 Minuten, um 17:00 UTC
Wind 7 kt aus Nord/Nordost
Temperatur 28°C
Luftfeuchtigkeit 42%
Luftdruck 1013 hPa
Sichtweite 10 km oder mehr
keine Wolken unter 1500 m und keine Kumulonimbus oder Gewitterwolken

METAR: SAME 201700Z 02007KT CAVOK 28/14 Q1013

Zeit: 15:12 (18:12 UTC)

Prognose

Neuester Wetterbericht von vor 1 Stunde und 12 Minuten, um 17:00 UTC
Gültige Prognose vom 20 um 18 UTC bis 21 um 18 UTC
Wind 5 kt aus Nordost
Sichtweite 10 km oder mehr
keine Wolken unter 1500 m und keine Kumulonimbus oder Gewitterwolken

TAF: SAME 201700Z 2018/2118 05005KT CAVOK TX30/2020Z TN16/2110Z

Wetterbeobachtungen und Prognosen von mehr als 4000 Flughäfen (METAR und TAF Bericht).

Die verfügbaren Stationen werden durch gelbe und rote Markierungen auf der Karte dargestellt.

Führen Sie die Maus auf sie, um den Namen der Station zu sehen.

Darauf klicken, um die Beobachtung von Wetterbeobachtungen und Prognosen zu sehen.

Um die Karte zu ändern : klicken Sie auf den grünen Tasten mit einem schwarzen Kreuz Zum Vergrößern, auf den grünen Button mit einem Gedankenstrich zu verkleinern, oder auf die grünen Pfeile für benachbarte Karten.


METAR-TAF: